»·PEaware :: WAT542 PHNL-KSEA

WAT542 :: PHNL-KSEA

FLIGHT INFORMATION

Flight Status: Arrived
Operator:
Walker Air Transport
More flights by this operator :: More flights under this callsign
Pilot: Andrew C. (28419)
Aircraft: Unknown
(A21N)
More flights by this aircraft type
Origin: PHNL Honolulu Intl
United States
Destination: KSEA Seattle-Tacoma Intl
United States
More flights between these airports :: More routes between these airports
Route: MKK4 APACK R463 AUNTI A332 HELOP/N0443F350 A332 HEKAB FOZZI SEDAR LATAY HAWKZ7
File this flight plan on PilotEdge
Remarks: RMK / SIMBRIEF
Altitude:
(Current/Filed)
33,000ft
Speed:
(Current/Filed)
459kts
Departed: 12-Feb-21 09:55 AM
Arrived: 12-Feb-21 03:28 PM
Distance/Time
Traveled:
2325nm/5:32
Distance/Time
To Go:
Arrived

Flight Plot

Page will automatically refresh every two minutes.

Flight plan parsing failed; only flown route is shown


Map Options




Map Legend


Flown Route
Filed Route
Departure Airport
Arrival Airport
Navaid (VOR, NDB)
Fix

Horizontal Profiles

Position Reports

Time Latitude Longitude Heading Altitude Ground
Speed
12-Feb-21 09:25 21.329351 -157.917412 74 13ft 0kts
12-Feb-21 09:26 21.329351 -157.917412 74 13ft 0kts
12-Feb-21 09:27 21.329351 -157.917412 74 13ft 0kts
12-Feb-21 09:28 21.329351 -157.917412 74 13ft 0kts
12-Feb-21 09:29 21.329351 -157.917412 74 13ft 0kts
12-Feb-21 09:30 21.329351 -157.917412 74 13ft 0kts
12-Feb-21 09:31 21.329351 -157.917412 74 13ft 0kts
12-Feb-21 09:32 21.329351 -157.917412 74 13ft 0kts
12-Feb-21 09:33 21.329351 -157.917412 74 13ft 0kts
12-Feb-21 09:34 21.329351 -157.917412 74 13ft 0kts
12-Feb-21 09:35 21.329351 -157.917412 74 13ft 0kts
12-Feb-21 09:36 21.329351 -157.917412 74 13ft 0kts
12-Feb-21 09:37 21.329351 -157.917412 74 13ft 0kts
12-Feb-21 09:38 21.329351 -157.917412 74 13ft 0kts
12-Feb-21 09:39 21.329351 -157.917412 74 13ft 0kts
12-Feb-21 09:40 21.329351 -157.917412 74 13ft 0kts
12-Feb-21 09:41 21.329351 -157.917412 74 13ft 0kts
12-Feb-21 09:42 21.329351 -157.917412 74 13ft 0kts
12-Feb-21 09:43 21.329199 -157.918015 74 13ft 2kts
12-Feb-21 09:44 21.329363 -157.918278 190 13ft 0kts
12-Feb-21 09:45 21.329362 -157.918278 190 13ft 0kts
12-Feb-21 09:46 21.328076 -157.918602 211 13ft 17kts
12-Feb-21 09:47 21.327716 -157.924458 269 13ft 23kts
12-Feb-21 09:48 21.327412 -157.931165 270 13ft 22kts
12-Feb-21 09:49 21.327402 -157.937724 270 13ft 22kts
12-Feb-21 09:50 21.323889 -157.942668 208 13ft 24kts
12-Feb-21 09:51 21.318039 -157.946139 208 13ft 23kts
12-Feb-21 09:52 21.311791 -157.945937 173 13ft 22kts
12-Feb-21 09:53 21.306778 -157.945303 93 13ft 10kts
12-Feb-21 09:54 21.306810 -157.925056 89 103ft 167kts
12-Feb-21 09:55 21.297044 -157.880484 154 2153ft 179kts
12-Feb-21 09:56 21.246559 -157.856310 112 3180ft 225kts
12-Feb-21 09:57 21.237192 -157.783801 98 5256ft 257kts
12-Feb-21 09:58 21.225157 -157.704258 99 7983ft 268kts
12-Feb-21 09:59 21.212347 -157.624123 98 10359ft 282kts
12-Feb-21 10:00 21.197719 -157.532978 97 11581ft 333kts
12-Feb-21 10:01 21.181656 -157.433447 97 13706ft 346kts
12-Feb-21 10:02 21.164892 -157.329925 97 15681ft 360kts
12-Feb-21 10:03 21.148750 -157.222657 85 17401ft 369kts
12-Feb-21 10:05 21.208220 -157.145781 14 18970ft 359kts
12-Feb-21 10:06 21.306093 -157.118226 13 20532ft 368kts
12-Feb-21 10:07 21.405980 -157.089725 13 21940ft 377kts
12-Feb-21 10:08 21.507861 -157.060489 12 23240ft 385kts
12-Feb-21 10:09 21.612291 -157.030469 12 24434ft 393kts
12-Feb-21 10:10 21.718817 -156.999805 12 25629ft 399kts
12-Feb-21 10:11 21.826296 -156.968817 12 26701ft 404kts
12-Feb-21 10:12 21.935574 -156.937268 12 27706ft 409kts
12-Feb-21 10:13 22.046105 -156.905322 12 28564ft 415kts
12-Feb-21 10:14 22.158097 -156.872981 12 29434ft 420kts
12-Feb-21 10:15 22.270988 -156.840310 12 30383ft 420kts
12-Feb-21 10:16 22.383211 -156.807712 12 31354ft 417kts
12-Feb-21 10:17 22.494443 -156.775351 11 32262ft 415kts
12-Feb-21 10:18 22.605525 -156.742987 11 33060ft 414kts
12-Feb-21 10:18 22.699644 -156.715551 11 33070ft 424kts
12-Feb-21 10:20 22.831993 -156.676875 12 33070ft 424kts
12-Feb-21 10:20 22.926816 -156.649072 12 33070ft 425kts
12-Feb-21 10:22 23.059711 -156.610059 12 33070ft 424kts
12-Feb-21 10:22 23.154387 -156.582274 12 33070ft 424kts
12-Feb-21 10:23 23.268140 -156.548837 11 33070ft 424kts
12-Feb-21 10:24 23.381726 -156.515344 12 33070ft 424kts
12-Feb-21 10:25 23.495197 -156.481804 11 33064ft 423kts
12-Feb-21 10:26 23.608433 -156.448268 11 33055ft 423kts
12-Feb-21 10:27 23.721843 -156.414628 11 33053ft 423kts
12-Feb-21 10:28 23.835333 -156.380880 11 33053ft 423kts
12-Feb-21 10:29 23.948439 -156.347144 13 33052ft 423kts
12-Feb-21 10:30 24.051803 -156.287302 35 33049ft 424kts
12-Feb-21 10:31 24.127622 -156.189201 49 33054ft 423kts
12-Feb-21 10:32 24.195392 -156.084157 49 33061ft 423kts
12-Feb-21 10:33 24.263404 -155.978630 49 33072ft 423kts
12-Feb-21 10:34 24.331102 -155.873395 49 33077ft 423kts
12-Feb-21 10:35 24.398731 -155.768045 49 33078ft 423kts
12-Feb-21 10:36 24.466293 -155.662571 49 33078ft 423kts
12-Feb-21 10:37 24.533786 -155.556977 49 33078ft 423kts
12-Feb-21 10:38 24.601051 -155.451509 49 33075ft 423kts
12-Feb-21 10:39 24.668435 -155.345616 50 33071ft 423kts
12-Feb-21 10:40 24.739350 -155.243130 42 33073ft 420kts
12-Feb-21 10:41 24.822387 -155.152542 39 33071ft 421kts
12-Feb-21 10:42 24.905725 -155.062433 39 33070ft 421kts
12-Feb-21 10:43 24.988916 -154.972232 39 33069ft 420kts
12-Feb-21 10:44 25.072206 -154.881733 39 33067ft 420kts
12-Feb-21 10:45 25.155439 -154.791468 39 33063ft 420kts
12-Feb-21 10:46 25.238677 -154.700866 39 33058ft 421kts
12-Feb-21 10:47 25.321593 -154.610253 39 33054ft 421kts
12-Feb-21 10:48 25.404543 -154.519389 39 33053ft 420kts
12-Feb-21 10:49 25.487535 -154.428299 39 33053ft 420kts
12-Feb-21 10:50 25.570192 -154.337360 40 33051ft 420kts
12-Feb-21 10:51 25.652856 -154.245770 40 33053ft 420kts
12-Feb-21 10:52 25.735690 -154.154208 40 33053ft 421kts
12-Feb-21 10:53 25.818290 -154.062762 40 33053ft 420kts
12-Feb-21 10:54 25.900497 -153.971585 40 33053ft 419kts
12-Feb-21 10:55 25.982974 -153.879919 40 33053ft 419kts
12-Feb-21 10:56 26.065145 -153.788402 40 33053ft 419kts
12-Feb-21 10:57 26.147243 -153.697068 40 33053ft 419kts
12-Feb-21 10:58 26.229539 -153.605287 40 33053ft 419kts
12-Feb-21 10:59 26.311521 -153.513430 40 33051ft 419kts
12-Feb-21 11:00 26.393626 -153.421240 40 33046ft 419kts
12-Feb-21 11:01 26.475488 -153.329000 41 33042ft 420kts
12-Feb-21 11:02 26.557275 -153.236286 40 33042ft 419kts
12-Feb-21 11:03 26.639186 -153.143629 40 33042ft 420kts
12-Feb-21 11:04 26.721146 -153.050758 40 33042ft 419kts
12-Feb-21 11:05 26.802952 -152.957860 40 33042ft 420kts
12-Feb-21 11:06 26.884536 -152.865042 40 33042ft 420kts
12-Feb-21 11:07 26.966385 -152.771719 40 33041ft 420kts
12-Feb-21 11:08 27.048166 -152.678226 40 33036ft 421kts
12-Feb-21 11:09 27.130009 -152.584667 40 33034ft 421kts
12-Feb-21 11:10 27.212113 -152.490772 40 33034ft 422kts
12-Feb-21 11:11 27.294117 -152.396496 40 33033ft 423kts
12-Feb-21 11:12 27.376018 -152.301786 41 33033ft 424kts
12-Feb-21 11:13 27.458173 -152.206542 40 33033ft 425kts
12-Feb-21 11:14 27.540602 -152.111007 40 33034ft 426kts
12-Feb-21 11:15 27.622919 -152.015438 40 33035ft 426kts
12-Feb-21 11:16 27.705254 -151.919629 40 33039ft 425kts
12-Feb-21 11:17 27.787384 -151.823837 40 33041ft 426kts
12-Feb-21 11:18 27.869646 -151.727663 40 33041ft 426kts
12-Feb-21 11:19 27.951484 -151.631760 40 33040ft 425kts
12-Feb-21 11:20 28.033550 -151.535364 40 33039ft 427kts
12-Feb-21 11:21 28.115737 -151.438680 40 33041ft 427kts
12-Feb-21 11:22 28.198023 -151.342024 41 33039ft 427kts
12-Feb-21 11:23 28.279951 -151.244699 41 33039ft 427kts
12-Feb-21 11:24 28.362078 -151.147239 41 33035ft 427kts
12-Feb-21 11:25 28.443877 -151.049999 41 33034ft 427kts
12-Feb-21 11:26 28.525852 -150.952338 41 33034ft 428kts
12-Feb-21 11:27 28.607753 -150.854535 41 33033ft 428kts
12-Feb-21 11:28 28.689761 -150.756341 41 33034ft 427kts
12-Feb-21 11:29 28.771460 -150.658289 41 33034ft 427kts
12-Feb-21 11:30 28.853102 -150.560075 41 33033ft 428kts
12-Feb-21 11:31 28.934960 -150.461361 41 33033ft 429kts
12-Feb-21 11:32 29.016681 -150.362564 41 33033ft 429kts
12-Feb-21 11:33 29.098635 -150.262817 42 33033ft 431kts
12-Feb-21 11:34 29.180664 -150.163496 42 33033ft 431kts
12-Feb-21 11:35 29.263070 -150.063237 42 33033ft 433kts
12-Feb-21 11:36 29.345370 -149.962791 42 33036ft 431kts
12-Feb-21 11:37 29.427407 -149.862317 42 33046ft 432kts
12-Feb-21 11:38 29.509252 -149.761878 42 33051ft 433kts
12-Feb-21 11:39 29.591606 -149.660558 42 33051ft 433kts
12-Feb-21 11:40 29.673441 -149.559617 42 33051ft 434kts
12-Feb-21 11:41 29.755765 -149.457808 42 33052ft 434kts
12-Feb-21 11:42 29.837854 -149.356042 42 33051ft 434kts
12-Feb-21 11:43 29.919397 -149.254288 43 33051ft 433kts
12-Feb-21 11:44 30.000975 -149.152703 43 33051ft 433kts
12-Feb-21 11:45 30.083288 -149.049787 43 33051ft 438kts
12-Feb-21 11:46 30.165937 -148.946615 43 33051ft 438kts
12-Feb-21 11:47 30.248711 -148.842938 43 33051ft 437kts
12-Feb-21 11:48 30.330839 -148.739665 43 33051ft 437kts
12-Feb-21 11:49 30.412783 -148.636327 43 33051ft 436kts
12-Feb-21 11:51 30.494757 -148.532661 43 33051ft 436kts
12-Feb-21 11:52 30.576709 -148.428757 43 33051ft 436kts
12-Feb-21 11:53 30.658436 -148.324769 44 33051ft 437kts
12-Feb-21 11:54 30.739957 -148.220409 44 33051ft 438kts
12-Feb-21 11:55 30.821830 -148.115688 44 33051ft 439kts
12-Feb-21 11:56 30.903925 -148.010449 43 33051ft 441kts
12-Feb-21 11:57 30.986173 -147.904760 44 33051ft 440kts
12-Feb-21 11:58 31.068176 -147.799055 44 33050ft 441kts
12-Feb-21 11:59 31.150728 -147.692736 43 33049ft 443kts
12-Feb-21 12:00 31.233247 -147.586078 43 33044ft 444kts
12-Feb-21 12:01 31.315742 -147.478901 43 33043ft 444kts
12-Feb-21 12:02 31.398138 -147.371516 44 33043ft 445kts
12-Feb-21 12:03 31.480578 -147.263334 44 33042ft 445kts
12-Feb-21 12:04 31.562755 -147.155442 44 33042ft 445kts
12-Feb-21 12:05 31.645047 -147.047255 44 33043ft 445kts
12-Feb-21 12:05 31.713685 -146.956784 44 33043ft 444kts
12-Feb-21 12:07 31.809208 -146.830514 44 33042ft 444kts
12-Feb-21 12:07 31.877464 -146.740018 44 33042ft 444kts
12-Feb-21 12:08 31.959257 -146.631298 45 33042ft 444kts
12-Feb-21 12:10 32.054754 -146.503948 45 33042ft 448kts
12-Feb-21 12:11 32.137280 -146.393823 45 33044ft 447kts
12-Feb-21 12:11 32.205625 -146.302302 45 33042ft 447kts
12-Feb-21 12:12 32.287348 -146.192097 45 33042ft 447kts
12-Feb-21 12:13 32.369302 -146.081503 45 33043ft 447kts
12-Feb-21 12:14 32.450937 -145.971048 45 33046ft 447kts
12-Feb-21 12:15 32.532717 -145.860063 45 33042ft 448kts
12-Feb-21 12:16 32.614542 -145.748672 45 33042ft 450kts
12-Feb-21 12:17 32.696825 -145.636323 45 33042ft 451kts
12-Feb-21 12:18 32.778814 -145.524039 45 33042ft 453kts
12-Feb-21 12:19 32.861464 -145.410490 45 33042ft 454kts
12-Feb-21 12:20 32.943512 -145.297185 46 33042ft 454kts
12-Feb-21 12:21 33.025966 -145.182889 46 33043ft 455kts
12-Feb-21 12:22 33.108163 -145.068897 46 33046ft 456kts
12-Feb-21 12:23 33.190882 -144.954438 46 33054ft 456kts
12-Feb-21 12:24 33.273374 -144.839429 46 33060ft 456kts
12-Feb-21 12:25 33.355602 -144.724338 46 33060ft 455kts
12-Feb-21 12:26 33.437677 -144.609073 46 33060ft 457kts
12-Feb-21 12:27 33.519950 -144.493157 46 33057ft 458kts
12-Feb-21 12:28 33.602075 -144.377074 46 33049ft 459kts
12-Feb-21 12:29 33.684617 -144.259647 47 33043ft 461kts
12-Feb-21 12:30 33.767234 -144.141946 47 33044ft 461kts
12-Feb-21 12:31 33.849692 -144.024239 47 33052ft 460kts
12-Feb-21 12:32 33.931802 -143.906654 47 33059ft 459kts
12-Feb-21 12:33 34.013775 -143.788884 47 33060ft 459kts
12-Feb-21 12:34 34.095602 -143.670934 47 33060ft 459kts
12-Feb-21 12:35 34.177658 -143.552874 47 33060ft 460kts
12-Feb-21 12:36 34.259475 -143.434273 47 33060ft 460kts
12-Feb-21 12:37 34.341038 -143.315426 48 33060ft 460kts
12-Feb-21 12:38 34.422164 -143.196515 47 33060ft 460kts
12-Feb-21 12:39 34.503645 -143.077040 47 33057ft 460kts
12-Feb-21 12:40 34.585133 -142.957225 47 33056ft 460kts
12-Feb-21 12:41 34.666210 -142.837597 47 33069ft 460kts
12-Feb-21 12:42 34.747508 -142.717239 47 33084ft 460kts
12-Feb-21 12:43 34.828508 -142.596928 47 33085ft 460kts
12-Feb-21 12:44 34.910054 -142.475437 47 33613ft 466kts
12-Feb-21 12:45 34.991771 -142.353306 47 34561ft 465kts
12-Feb-21 12:46 35.072819 -142.230720 48 35070ft 467kts
12-Feb-21 12:47 35.154898 -142.107223 48 35078ft 469kts
12-Feb-21 12:48 35.236961 -141.983299 48 35082ft 470kts
12-Feb-21 12:49 35.318516 -141.859431 48 35082ft 469kts
12-Feb-21 12:50 35.400295 -141.734775 48 35086ft 470kts
12-Feb-21 12:51 35.481957 -141.609836 48 35090ft 470kts
12-Feb-21 12:52 35.563574 -141.484516 48 35094ft 470kts
12-Feb-21 12:53 35.644920 -141.359137 48 35095ft 469kts
12-Feb-21 12:54 35.725885 -141.233448 48 35095ft 468kts
12-Feb-21 12:55 35.806719 -141.107847 48 35095ft 467kts
12-Feb-21 12:56 35.886977 -140.982810 48 35096ft 465kts
12-Feb-21 12:57 35.966877 -140.857861 48 35090ft 465kts
12-Feb-21 12:58 36.046977 -140.732174 48 35080ft 470kts
12-Feb-21 12:59 36.127475 -140.605593 47 35078ft 468kts
12-Feb-21 13:00 36.207744 -140.479259 48 35078ft 466kts
12-Feb-21 13:01 36.287660 -140.352524 48 35078ft 466kts
12-Feb-21 13:02 36.366920 -140.225774 48 35078ft 465kts
12-Feb-21 13:03 36.445999 -140.099259 48 35078ft 465kts
12-Feb-21 13:04 36.525505 -139.971660 48 35085ft 466kts
12-Feb-21 13:05 36.604548 -139.844333 48 35097ft 466kts
12-Feb-21 13:06 36.683331 -139.716969 48 35103ft 467kts
12-Feb-21 13:07 36.762396 -139.588646 48 35104ft 468kts
12-Feb-21 13:08 36.841436 -139.459873 48 35103ft 468kts
12-Feb-21 13:09 36.920406 -139.330700 49 35100ft 469kts
12-Feb-21 13:10 36.998993 -139.201188 49 35104ft 470kts
12-Feb-21 13:11 37.077915 -139.071057 49 35104ft 469kts
12-Feb-21 13:12 37.156921 -138.940923 48 35104ft 469kts
12-Feb-21 13:13 37.235643 -138.810446 49 35104ft 470kts
12-Feb-21 13:14 37.314179 -138.679516 49 35104ft 470kts
12-Feb-21 13:15 37.392715 -138.548039 49 35104ft 471kts
12-Feb-21 13:16 37.471126 -138.416266 49 35104ft 471kts
12-Feb-21 13:17 37.549229 -138.284223 49 35104ft 472kts
12-Feb-21 13:18 37.627554 -138.151212 49 35105ft 473kts
12-Feb-21 13:19 37.705627 -138.018405 49 35110ft 473kts
12-Feb-21 13:20 37.783777 -137.884949 49 35113ft 472kts
12-Feb-21 13:21 37.861871 -137.751052 49 35112ft 475kts
12-Feb-21 13:22 37.939773 -137.616902 49 35112ft 474kts
12-Feb-21 13:23 38.017743 -137.482168 49 35111ft 475kts
12-Feb-21 13:24 38.095593 -137.347020 50 35112ft 477kts
12-Feb-21 13:25 38.173633 -137.211231 50 35113ft 477kts
12-Feb-21 13:26 38.251481 -137.075055 50 35113ft 477kts
12-Feb-21 13:27 38.329176 -136.938489 50 35116ft 476kts
12-Feb-21 13:28 38.406497 -136.802051 50 35120ft 475kts
12-Feb-21 13:29 38.483569 -136.665436 50 35123ft 475kts
12-Feb-21 13:30 38.560267 -136.528953 50 35123ft 474kts
12-Feb-21 13:31 38.636914 -136.391976 50 35123ft 475kts
12-Feb-21 13:32 38.713598 -136.253975 50 35123ft 477kts
12-Feb-21 13:33 38.790359 -136.115428 50 35123ft 478kts
12-Feb-21 13:34 38.867032 -135.976601 50 35126ft 477kts
12-Feb-21 13:35 38.943372 -135.837841 50 35126ft 477kts
12-Feb-21 13:36 39.019561 -135.698759 50 35122ft 477kts
12-Feb-21 13:37 39.095841 -135.558903 50 35116ft 478kts
12-Feb-21 13:38 39.172312 -135.418857 50 35115ft 478kts
12-Feb-21 13:39 39.248050 -135.278629 51 35114ft 478kts
12-Feb-21 13:40 39.323961 -135.137477 51 35115ft 478kts
12-Feb-21 13:42 39.399608 -134.997271 48 35111ft 476kts
12-Feb-21 13:43 39.487858 -134.872324 39 35103ft 469kts
12-Feb-21 13:44 39.579416 -134.752801 39 35098ft 469kts
12-Feb-21 13:45 39.670676 -134.632490 39 35101ft 468kts
12-Feb-21 13:46 39.761659 -134.512006 39 35104ft 467kts
12-Feb-21 13:47 39.852166 -134.391670 39 35104ft 466kts
12-Feb-21 13:48 39.942748 -134.270398 40 35103ft 466kts
12-Feb-21 13:49 40.032765 -134.149522 39 35104ft 466kts
12-Feb-21 13:50 40.122924 -134.028296 39 35107ft 466kts
12-Feb-21 13:51 40.213082 -133.906977 39 35109ft 466kts
12-Feb-21 13:52 40.302794 -133.785338 39 35096ft 466kts
12-Feb-21 13:53 40.392688 -133.662873 39 35082ft 467kts
12-Feb-21 13:54 40.482545 -133.539946 39 35078ft 467kts
12-Feb-21 13:55 40.572198 -133.416811 39 35078ft 467kts
12-Feb-21 13:56 40.661746 -133.293087 40 35077ft 469kts
12-Feb-21 13:57 40.751343 -133.168626 40 35080ft 468kts
12-Feb-21 13:58 40.840688 -133.044348 40 35084ft 469kts
12-Feb-21 13:58 40.915250 -132.940235 40 35086ft 469kts
12-Feb-21 13:59 41.005030 -132.814396 40 35087ft 470kts
12-Feb-21 14:01 41.109103 -132.667873 40 35086ft 469kts
12-Feb-21 14:01 41.183237 -132.563592 40 35087ft 469kts
12-Feb-21 14:02 41.272582 -132.436905 40 35087ft 469kts
12-Feb-21 14:03 41.361465 -132.310052 41 35084ft 470kts
12-Feb-21 14:04 41.450265 -132.182479 41 35081ft 470kts
12-Feb-21 14:05 41.539128 -132.054652 41 35078ft 471kts
12-Feb-21 14:06 41.627891 -131.926435 40 35078ft 470kts
12-Feb-21 14:07 41.716362 -131.798130 40 35078ft 470kts
12-Feb-21 14:08 41.804596 -131.669586 40 35078ft 470kts
12-Feb-21 14:09 41.892787 -131.540518 40 35078ft 469kts
12-Feb-21 14:10 41.980650 -131.411387 40 35075ft 468kts
12-Feb-21 14:11 42.068338 -131.281622 41 35068ft 468kts
12-Feb-21 14:12 42.155496 -131.152544 40 35061ft 467kts
12-Feb-21 14:13 42.242964 -131.022517 40 35060ft 467kts
12-Feb-21 14:14 42.329683 -130.892834 40 35062ft 466kts
12-Feb-21 14:15 42.416380 -130.762551 40 35060ft 465kts
12-Feb-21 14:16 42.502464 -130.632638 40 35060ft 463kts
12-Feb-21 14:17 42.588605 -130.502073 40 35055ft 464kts
12-Feb-21 14:18 42.674037 -130.372015 39 35042ft 463kts
12-Feb-21 14:19 42.759471 -130.240992 40 35028ft 463kts
12-Feb-21 14:20 42.845103 -130.109601 40 35022ft 464kts
12-Feb-21 14:21 42.931593 -129.981030 34 35028ft 457kts
12-Feb-21 14:22 43.026485 -129.867111 31 35023ft 454kts
12-Feb-21 14:23 43.121670 -129.753269 31 35023ft 455kts
12-Feb-21 14:24 43.216433 -129.639444 31 35023ft 453kts
12-Feb-21 14:25 43.310824 -129.525293 31 35023ft 453kts
12-Feb-21 14:26 43.405229 -129.410547 31 35023ft 453kts
12-Feb-21 14:27 43.499204 -129.295576 32 35022ft 454kts
12-Feb-21 14:28 43.593400 -129.179710 32 35023ft 453kts
12-Feb-21 14:29 43.687119 -129.064261 32 35023ft 452kts
12-Feb-21 14:30 43.780584 -128.948680 32 35011ft 453kts
12-Feb-21 14:31 43.874122 -128.832444 32 34995ft 451kts
12-Feb-21 14:32 43.967316 -128.716149 31 34986ft 449kts
12-Feb-21 14:33 44.060014 -128.599977 31 34986ft 450kts
12-Feb-21 14:34 44.152283 -128.484129 31 34986ft 448kts
12-Feb-21 14:35 44.244549 -128.367722 31 34987ft 447kts
12-Feb-21 14:36 44.336371 -128.250682 32 34986ft 448kts
12-Feb-21 14:37 44.428108 -128.133525 32 34983ft 448kts
12-Feb-21 14:38 44.520265 -128.015444 32 34976ft 448kts
12-Feb-21 14:39 44.611591 -127.897845 31 34970ft 445kts
12-Feb-21 14:40 44.702963 -127.779770 31 34967ft 445kts
12-Feb-21 14:41 44.793557 -127.662156 31 34967ft 445kts
12-Feb-21 14:42 44.884144 -127.543978 31 34967ft 444kts
12-Feb-21 14:43 44.974538 -127.425564 31 34966ft 444kts
12-Feb-21 14:44 45.064673 -127.306767 31 34962ft 443kts
12-Feb-21 14:45 45.154648 -127.187789 31 34960ft 443kts
12-Feb-21 14:46 45.244221 -127.068982 31 34958ft 441kts
12-Feb-21 14:47 45.333803 -126.949626 31 34958ft 442kts
12-Feb-21 14:48 45.423119 -126.830105 31 34958ft 441kts
12-Feb-21 14:49 45.510926 -126.708713 36 34956ft 445kts
12-Feb-21 14:50 45.589170 -126.570861 39 34953ft 446kts
12-Feb-21 14:51 45.666520 -126.432256 39 34949ft 446kts
12-Feb-21 14:52 45.743454 -126.293781 39 34947ft 445kts
12-Feb-21 14:53 45.820196 -126.154884 39 34948ft 444kts
12-Feb-21 14:54 45.896730 -126.016007 39 34946ft 444kts
12-Feb-21 14:55 45.972991 -125.877121 39 34954ft 444kts
12-Feb-21 14:56 46.048994 -125.737748 39 34946ft 443kts
12-Feb-21 14:57 46.125069 -125.597837 39 34949ft 443kts
12-Feb-21 14:58 46.200824 -125.458085 39 34968ft 442kts
12-Feb-21 14:59 46.276106 -125.318284 39 34960ft 443kts
12-Feb-21 15:00 46.351149 -125.177922 39 34964ft 441kts
12-Feb-21 15:01 46.414557 -125.020637 57 34967ft 465kts
12-Feb-21 15:02 46.450546 -124.838016 65 34959ft 475kts
12-Feb-21 15:03 46.483546 -124.652967 64 34098ft 474kts
12-Feb-21 15:04 46.517065 -124.466371 65 31778ft 480kts
12-Feb-21 15:05 46.550208 -124.278926 68 28773ft 480kts
12-Feb-21 15:06 46.582768 -124.092212 68 26015ft 462kts
12-Feb-21 15:07 46.614000 -123.912683 69 23641ft 444kts
12-Feb-21 15:08 46.643703 -123.740502 69 21868ft 434kts
12-Feb-21 15:09 46.668492 -123.570682 72 20276ft 421kts
12-Feb-21 15:10 46.691769 -123.406936 73 18784ft 405kts
12-Feb-21 15:11 46.714212 -123.248117 74 17187ft 392kts
12-Feb-21 15:12 46.735756 -123.094153 74 15609ft 380kts
12-Feb-21 15:13 46.756440 -122.944924 76 13994ft 370kts
12-Feb-21 15:14 46.776316 -122.800384 76 12468ft 345kts
12-Feb-21 15:15 46.825749 -122.688337 33 11188ft 327kts
12-Feb-21 15:16 46.891368 -122.603403 40 10009ft 292kts
12-Feb-21 15:17 46.951097 -122.515697 45 8807ft 283kts
12-Feb-21 15:18 47.009376 -122.444998 29 7482ft 257kts
12-Feb-21 15:19 47.071548 -122.393047 31 6465ft 248kts
12-Feb-21 15:20 47.131410 -122.342407 32 5844ft 247kts
12-Feb-21 15:21 47.193404 -122.310092 3 4641ft 223kts
12-Feb-21 15:22 47.249233 -122.309320 2 3680ft 186kts
12-Feb-21 15:23 47.300274 -122.308905 3 2834ft 182kts
12-Feb-21 15:24 47.347162 -122.308573 5 1987ft 144kts
12-Feb-21 15:25 47.387586 -122.308226 8 1299ft 145kts
12-Feb-21 15:26 47.427956 -122.307906 7 613ft 146kts
12-Feb-21 15:27 47.445872 -122.306630 89 478ft 0kts
12-Feb-21 15:28 47.443096 -122.306304 178 478ft 12kts
12-Feb-21 15:30 47.439903 -122.304235 83 478ft 18kts
12-Feb-21 15:31 47.441887 -122.301851 39 478ft 0kts
12-Feb-21 15:32 47.441887 -122.301850 39 478ft 0kts
12-Feb-21 15:33 47.441887 -122.301850 39 478ft 0kts

Navigation Log

Ident Type
Flight plan parsing failed, navigation log unavailable